sensor_id;sensor_type;location;lat;lon;timestamp;P1;durP1;ratioP1;P2;durP2;ratioP2
69789;SDS011;57064;52.046;4.800;2023-04-01T00:00:23;31.65;;;10.52;;
69789;SDS011;57064;52.046;4.800;2023-04-01T00:02:49;31.45;;;11.10;;
69789;SDS011;57064;52.046;4.800;2023-04-01T00:05:16;27.42;;;8.00;;
69789;SDS011;57064;52.046;4.800;2023-04-01T00:07:42;30.08;;;9.60;;
69789;SDS011;57064;52.046;4.800;2023-04-01T00:10:09;33.47;;;9.10;;
69789;SDS011;57064;52.046;4.800;2023-04-01T00:12:38;31.38;;;8.90;;
69789;SDS011;57064;52.046;4.800;2023-04-01T00:15:05;28.48;;;8.43;;
69789;SDS011;57064;52.046;4.800;2023-04-01T00:17:33;23.25;;;7.38;;
69789;SDS011;57064;52.046;4.800;2023-04-01T00:19:59;30.85;;;9.77;;
69789;SDS011;57064;52.046;4.800;2023-04-01T00:22:26;30.75;;;9.88;;
69789;SDS011;57064;52.046;4.800;2023-04-01T00:24:52;34.08;;;9.98;;
69789;SDS011;57064;52.046;4.800;2023-04-01T00:27:19;36.75;;;10.00;;
69789;SDS011;57064;52.046;4.800;2023-04-01T00:29:46;33.72;;;8.77;;
69789;SDS011;57064;52.046;4.800;2023-04-01T00:32:12;32.42;;;8.52;;
69789;SDS011;57064;52.046;4.800;2023-04-01T00:34:38;28.23;;;7.95;;
69789;SDS011;57064;52.046;4.800;2023-04-01T00:37:05;22.65;;;6.93;;
69789;SDS011;57064;52.046;4.800;2023-04-01T00:39:32;29.88;;;8.57;;
69789;SDS011;57064;52.046;4.800;2023-04-01T00:41:59;27.50;;;7.32;;
69789;SDS011;57064;52.046;4.800;2023-04-01T00:44:27;29.13;;;7.43;;
69789;SDS011;57064;52.046;4.800;2023-04-01T00:46:58;33.10;;;7.80;;
69789;SDS011;57064;52.046;4.800;2023-04-01T00:49:26;48.35;;;11.02;;
69789;SDS011;57064;52.046;4.800;2023-04-01T00:51:57;31.63;;;8.25;;
69789;SDS011;57064;52.046;4.800;2023-04-01T00:54:26;26.08;;;7.97;;
69789;SDS011;57064;52.046;4.800;2023-04-01T00:56:54;39.10;;;8.90;;
69789;SDS011;57064;52.046;4.800;2023-04-01T00:59:27;31.27;;;8.70;;
69789;SDS011;57064;52.046;4.800;2023-04-01T01:01:56;30.55;;;10.70;;
69789;SDS011;57064;52.046;4.800;2023-04-01T01:04:27;32.35;;;11.57;;
69789;SDS011;57064;52.046;4.800;2023-04-01T01:09:32;34.70;;;10.85;;
69789;SDS011;57064;52.046;4.800;2023-04-01T01:12:38;41.05;;;8.60;;
69789;SDS011;57064;52.046;4.800;2023-04-01T01:29:12;35.97;;;10.98;;
69789;SDS011;57064;52.046;4.800;2023-04-01T01:35:20;27.45;;;7.97;;
69789;SDS011;57064;52.046;4.800;2023-04-01T01:37:58;27.58;;;6.53;;
69789;SDS011;57064;52.046;4.800;2023-04-01T01:40:28;31.08;;;7.10;;
69789;SDS011;57064;52.046;4.800;2023-04-01T01:42:58;28.58;;;7.38;;
69789;SDS011;57064;52.046;4.800;2023-04-01T01:45:28;31.55;;;7.75;;
69789;SDS011;57064;52.046;4.800;2023-04-01T01:47:56;20.58;;;5.25;;
69789;SDS011;57064;52.046;4.800;2023-04-01T01:50:24;31.25;;;7.60;;
69789;SDS011;57064;52.046;4.800;2023-04-01T01:52:59;27.88;;;7.55;;
69789;SDS011;57064;52.046;4.800;2023-04-01T01:55:36;40.60;;;8.77;;
69789;SDS011;57064;52.046;4.800;2023-04-01T01:58:07;17.25;;;5.95;;
69789;SDS011;57064;52.046;4.800;2023-04-01T02:00:38;23.88;;;6.78;;
69789;SDS011;57064;52.046;4.800;2023-04-01T02:03:07;26.17;;;6.85;;
69789;SDS011;57064;52.046;4.800;2023-04-01T02:05:33;25.67;;;7.50;;
69789;SDS011;57064;52.046;4.800;2023-04-01T02:08:02;16.92;;;5.75;;
69789;SDS011;57064;52.046;4.800;2023-04-01T02:10:42;29.25;;;8.13;;
69789;SDS011;57064;52.046;4.800;2023-04-01T02:13:23;31.17;;;8.93;;
69789;SDS011;57064;52.046;4.800;2023-04-01T02:16:05;30.65;;;7.13;;
69789;SDS011;57064;52.046;4.800;2023-04-01T02:18:36;30.85;;;8.18;;
69789;SDS011;57064;52.046;4.800;2023-04-01T02:21:04;28.83;;;9.68;;
69789;SDS011;57064;52.046;4.800;2023-04-01T02:23:33;34.47;;;9.88;;
69789;SDS011;57064;52.046;4.800;2023-04-01T02:26:01;23.02;;;8.52;;
69789;SDS011;57064;52.046;4.800;2023-04-01T02:28:29;29.60;;;7.85;;
69789;SDS011;57064;52.046;4.800;2023-04-01T02:30:57;27.30;;;9.13;;
69789;SDS011;57064;52.046;4.800;2023-04-01T02:33:27;27.40;;;8.43;;
69789;SDS011;57064;52.046;4.800;2023-04-01T02:35:55;24.40;;;7.57;;
69789;SDS011;57064;52.046;4.800;2023-04-01T02:38:21;32.65;;;8.65;;
69789;SDS011;57064;52.046;4.800;2023-04-01T02:40:49;30.55;;;9.60;;
69789;SDS011;57064;52.046;4.800;2023-04-01T02:43:20;26.83;;;8.93;;
69789;SDS011;57064;52.046;4.800;2023-04-01T02:45:47;35.05;;;9.95;;
69789;SDS011;57064;52.046;4.800;2023-04-01T02:48:13;36.60;;;13.05;;
69789;SDS011;57064;52.046;4.800;2023-04-01T02:50:39;35.10;;;11.95;;
69789;SDS011;57064;52.046;4.800;2023-04-01T02:53:05;45.92;;;14.02;;
69789;SDS011;57064;52.046;4.800;2023-04-01T02:55:32;48.42;;;13.45;;
69789;SDS011;57064;52.046;4.800;2023-04-01T02:57:58;44.03;;;13.82;;
69789;SDS011;57064;52.046;4.800;2023-04-01T03:00:25;53.90;;;16.98;;
69789;SDS011;57064;52.046;4.800;2023-04-01T03:02:52;58.78;;;18.08;;
69789;SDS011;57064;52.046;4.800;2023-04-01T03:05:18;63.50;;;20.20;;
69789;SDS011;57064;52.046;4.800;2023-04-01T03:07:44;65.35;;;19.30;;
69789;SDS011;57064;52.046;4.800;2023-04-01T03:10:10;64.70;;;20.73;;
69789;SDS011;57064;52.046;4.800;2023-04-01T03:12:37;70.53;;;23.73;;
69789;SDS011;57064;52.046;4.800;2023-04-01T03:15:03;71.78;;;21.45;;
69789;SDS011;57064;52.046;4.800;2023-04-01T03:17:30;72.53;;;22.13;;
69789;SDS011;57064;52.046;4.800;2023-04-01T03:19:56;78.88;;;23.90;;
69789;SDS011;57064;52.046;4.800;2023-04-01T03:22:22;77.80;;;21.45;;
69789;SDS011;57064;52.046;4.800;2023-04-01T03:24:48;74.78;;;21.67;;
69789;SDS011;57064;52.046;4.800;2023-04-01T03:27:15;67.43;;;18.75;;
69789;SDS011;57064;52.046;4.800;2023-04-01T03:29:41;66.68;;;19.40;;
69789;SDS011;57064;52.046;4.800;2023-04-01T03:32:07;60.92;;;16.85;;
69789;SDS011;57064;52.046;4.800;2023-04-01T03:34:33;53.47;;;16.20;;
69789;SDS011;57064;52.046;4.800;2023-04-01T03:36:59;52.53;;;14.73;;
69789;SDS011;57064;52.046;4.800;2023-04-01T03:39:25;43.67;;;14.95;;
69789;SDS011;57064;52.046;4.800;2023-04-01T03:41:52;48.05;;;14.48;;
69789;SDS011;57064;52.046;4.800;2023-04-01T03:44:18;51.70;;;16.30;;
69789;SDS011;57064;52.046;4.800;2023-04-01T03:46:44;49.83;;;14.55;;
69789;SDS011;57064;52.046;4.800;2023-04-01T03:49:10;53.65;;;16.77;;
69789;SDS011;57064;52.046;4.800;2023-04-01T03:51:40;53.15;;;16.05;;
69789;SDS011;57064;52.046;4.800;2023-04-01T03:54:10;54.75;;;15.20;;
69789;SDS011;57064;52.046;4.800;2023-04-01T03:56:36;53.85;;;14.43;;
69789;SDS011;57064;52.046;4.800;2023-04-01T03:59:04;64.07;;;17.40;;
69789;SDS011;57064;52.046;4.800;2023-04-01T04:01:31;64.38;;;18.08;;
69789;SDS011;57064;52.046;4.800;2023-04-01T04:03:57;57.35;;;16.85;;
69789;SDS011;57064;52.046;4.800;2023-04-01T04:06:24;62.40;;;19.17;;
69789;SDS011;57064;52.046;4.800;2023-04-01T04:08:51;59.63;;;17.13;;
69789;SDS011;57064;52.046;4.800;2023-04-01T04:11:18;74.95;;;19.90;;
69789;SDS011;57064;52.046;4.800;2023-04-01T04:13:45;51.95;;;15.52;;
69789;SDS011;57064;52.046;4.800;2023-04-01T04:16:13;68.15;;;19.88;;
69789;SDS011;57064;52.046;4.800;2023-04-01T04:18:39;71.88;;;22.42;;
69789;SDS011;57064;52.046;4.800;2023-04-01T04:21:06;66.95;;;16.80;;
69789;SDS011;57064;52.046;4.800;2023-04-01T04:23:32;55.88;;;16.17;;
69789;SDS011;57064;52.046;4.800;2023-04-01T04:26:04;53.67;;;14.48;;
69789;SDS011;57064;52.046;4.800;2023-04-01T04:28:31;46.38;;;14.90;;
69789;SDS011;57064;52.046;4.800;2023-04-01T04:30:58;58.45;;;16.00;;
69789;SDS011;57064;52.046;4.800;2023-04-01T04:33:25;54.80;;;14.43;;
69789;SDS011;57064;52.046;4.800;2023-04-01T04:35:51;51.67;;;14.23;;
69789;SDS011;57064;52.046;4.800;2023-04-01T04:38:21;60.45;;;16.35;;
69789;SDS011;57064;52.046;4.800;2023-04-01T04:40:47;54.60;;;15.05;;
69789;SDS011;57064;52.046;4.800;2023-04-01T04:43:14;46.53;;;14.68;;
69789;SDS011;57064;52.046;4.800;2023-04-01T04:45:42;44.45;;;14.10;;
69789;SDS011;57064;52.046;4.800;2023-04-01T04:48:09;50.60;;;14.35;;
69789;SDS011;57064;52.046;4.800;2023-04-01T04:50:39;44.63;;;15.40;;
69789;SDS011;57064;52.046;4.800;2023-04-01T04:53:05;39.13;;;12.70;;
69789;SDS011;57064;52.046;4.800;2023-04-01T04:55:31;36.63;;;11.23;;
69789;SDS011;57064;52.046;4.800;2023-04-01T04:57:57;47.47;;;13.15;;
69789;SDS011;57064;52.046;4.800;2023-04-01T05:00:23;42.20;;;14.20;;
69789;SDS011;57064;52.046;4.800;2023-04-01T05:02:49;45.65;;;13.52;;
69789;SDS011;57064;52.046;4.800;2023-04-01T05:05:15;41.72;;;11.63;;
69789;SDS011;57064;52.046;4.800;2023-04-01T05:07:42;41.78;;;13.00;;
69789;SDS011;57064;52.046;4.800;2023-04-01T05:10:08;49.03;;;13.52;;
69789;SDS011;57064;52.046;4.800;2023-04-01T05:12:34;48.30;;;16.05;;
69789;SDS011;57064;52.046;4.800;2023-04-01T05:15:05;54.85;;;14.15;;
69789;SDS011;57064;52.046;4.800;2023-04-01T05:17:31;53.05;;;14.43;;
69789;SDS011;57064;52.046;4.800;2023-04-01T05:19:57;51.38;;;15.38;;
69789;SDS011;57064;52.046;4.800;2023-04-01T05:22:23;53.85;;;15.80;;
69789;SDS011;57064;52.046;4.800;2023-04-01T05:24:50;50.80;;;13.20;;
69789;SDS011;57064;52.046;4.800;2023-04-01T05:27:16;54.25;;;13.15;;
69789;SDS011;57064;52.046;4.800;2023-04-01T05:29:42;57.15;;;17.70;;
69789;SDS011;57064;52.046;4.800;2023-04-01T05:32:08;61.92;;;16.30;;
69789;SDS011;57064;52.046;4.800;2023-04-01T05:34:34;50.83;;;14.38;;
69789;SDS011;57064;52.046;4.800;2023-04-01T05:37:00;50.78;;;13.02;;
69789;SDS011;57064;52.046;4.800;2023-04-01T05:39:26;54.50;;;13.32;;
69789;SDS011;57064;52.046;4.800;2023-04-01T05:41:53;42.65;;;14.35;;
69789;SDS011;57064;52.046;4.800;2023-04-01T05:44:19;41.58;;;13.43;;
69789;SDS011;57064;52.046;4.800;2023-04-01T05:46:45;49.28;;;12.95;;
69789;SDS011;57064;52.046;4.800;2023-04-01T05:49:11;45.28;;;15.15;;
69789;SDS011;57064;52.046;4.800;2023-04-01T05:51:37;43.67;;;12.93;;
69789;SDS011;57064;52.046;4.800;2023-04-01T05:54:04;44.47;;;12.60;;
69789;SDS011;57064;52.046;4.800;2023-04-01T05:56:30;41.47;;;13.27;;
69789;SDS011;57064;52.046;4.800;2023-04-01T05:58:56;49.70;;;13.38;;
69789;SDS011;57064;52.046;4.800;2023-04-01T06:01:22;47.95;;;15.63;;
69789;SDS011;57064;52.046;4.800;2023-04-01T06:03:49;45.67;;;14.93;;
69789;SDS011;57064;52.046;4.800;2023-04-01T06:06:16;50.05;;;13.63;;
69789;SDS011;57064;52.046;4.800;2023-04-01T06:08:52;45.38;;;13.18;;
69789;SDS011;57064;52.046;4.800;2023-04-01T06:27:58;48.55;;;18.45;;
69789;SDS011;57064;52.046;4.800;2023-04-01T06:30:45;39.50;;;14.45;;
69789;SDS011;57064;52.046;4.800;2023-04-01T06:39:26;51.40;;;18.98;;
69789;SDS011;57064;52.046;4.800;2023-04-01T06:42:16;59.00;;;21.52;;
69789;SDS011;57064;52.046;4.800;2023-04-01T06:51:07;49.75;;;20.75;;
69789;SDS011;57064;52.046;4.800;2023-04-01T06:53:49;52.63;;;19.00;;
69789;SDS011;57064;52.046;4.800;2023-04-01T06:56:29;60.03;;;23.00;;
69789;SDS011;57064;52.046;4.800;2023-04-01T06:58:58;46.08;;;18.60;;
69789;SDS011;57064;52.046;4.800;2023-04-01T07:01:34;50.92;;;19.88;;
69789;SDS011;57064;52.046;4.800;2023-04-01T07:04:16;55.45;;;18.27;;
69789;SDS011;57064;52.046;4.800;2023-04-01T07:09:50;60.67;;;20.25;;
69789;SDS011;57064;52.046;4.800;2023-04-01T07:12:25;51.50;;;21.52;;
69789;SDS011;57064;52.046;4.800;2023-04-01T07:15:04;54.85;;;21.55;;
69789;SDS011;57064;52.046;4.800;2023-04-01T07:17:39;53.05;;;23.48;;
69789;SDS011;57064;52.046;4.800;2023-04-01T07:20:17;44.08;;;17.55;;
69789;SDS011;57064;52.046;4.800;2023-04-01T07:22:52;54.03;;;22.55;;
69789;SDS011;57064;52.046;4.800;2023-04-01T07:25:23;55.05;;;21.95;;
69789;SDS011;57064;52.046;4.800;2023-04-01T07:28:00;54.85;;;21.23;;
69789;SDS011;57064;52.046;4.800;2023-04-01T07:40:47;49.50;;;19.52;;
69789;SDS011;57064;52.046;4.800;2023-04-01T07:48:55;39.42;;;16.80;;
69789;SDS011;57064;52.046;4.800;2023-04-01T07:51:31;47.90;;;15.65;;
69789;SDS011;57064;52.046;4.800;2023-04-01T07:54:19;44.28;;;14.38;;
69789;SDS011;57064;52.046;4.800;2023-04-01T07:59:39;33.28;;;13.77;;
69789;SDS011;57064;52.046;4.800;2023-04-01T08:02:25;28.15;;;12.00;;
69789;SDS011;57064;52.046;4.800;2023-04-01T08:08:09;34.45;;;11.82;;
69789;SDS011;57064;52.046;4.800;2023-04-01T08:10:48;36.28;;;13.52;;
69789;SDS011;57064;52.046;4.800;2023-04-01T08:13:26;41.30;;;12.80;;
69789;SDS011;57064;52.046;4.800;2023-04-01T08:22:09;30.75;;;10.75;;
69789;SDS011;57064;52.046;4.800;2023-04-01T08:24:43;34.90;;;12.75;;
69789;SDS011;57064;52.046;4.800;2023-04-01T08:28:00;25.52;;;10.73;;
69789;SDS011;57064;52.046;4.800;2023-04-01T08:30:06;34.63;;;12.25;;
69789;SDS011;57064;52.046;4.800;2023-04-01T08:32:44;30.95;;;11.88;;
69789;SDS011;57064;52.046;4.800;2023-04-01T08:37:51;31.83;;;9.73;;
69789;SDS011;57064;52.046;4.800;2023-04-01T08:43:28;23.35;;;10.45;;
69789;SDS011;57064;52.046;4.800;2023-04-01T09:21:17;25.52;;;10.68;;
69789;SDS011;57064;52.046;4.800;2023-04-01T09:23:52;18.95;;;8.30;;
69789;SDS011;57064;52.046;4.800;2023-04-01T09:37:57;24.88;;;10.65;;
69789;SDS011;57064;52.046;4.800;2023-04-01T09:40:52;19.30;;;8.23;;
69789;SDS011;57064;52.046;4.800;2023-04-01T09:55:02;22.73;;;9.13;;
69789;SDS011;57064;52.046;4.800;2023-04-01T09:57:55;16.67;;;5.95;;
69789;SDS011;57064;52.046;4.800;2023-04-01T10:23:43;15.70;;;7.45;;
69789;SDS011;57064;52.046;4.800;2023-04-01T10:26:32;13.02;;;6.22;;
69789;SDS011;57064;52.046;4.800;2023-04-01T10:29:30;15.52;;;6.43;;
69789;SDS011;57064;52.046;4.800;2023-04-01T10:32:29;13.27;;;6.63;;
69789;SDS011;57064;52.046;4.800;2023-04-01T10:49:02;21.35;;;10.38;;
69789;SDS011;57064;52.046;4.800;2023-04-01T10:54:17;25.70;;;11.27;;
69789;SDS011;57064;52.046;4.800;2023-04-01T11:00:01;22.95;;;11.05;;
69789;SDS011;57064;52.046;4.800;2023-04-01T11:08:15;21.38;;;9.65;;
69789;SDS011;57064;52.046;4.800;2023-04-01T11:28:08;16.10;;;6.85;;
69789;SDS011;57064;52.046;4.800;2023-04-01T11:33:20;18.15;;;9.77;;
69789;SDS011;57064;52.046;4.800;2023-04-01T11:35:55;23.05;;;9.63;;
69789;SDS011;57064;52.046;4.800;2023-04-01T11:46:33;21.45;;;11.27;;
69789;SDS011;57064;52.046;4.800;2023-04-01T11:49:12;22.10;;;11.02;;
69789;SDS011;57064;52.046;4.800;2023-04-01T12:09:23;16.15;;;9.90;;
69789;SDS011;57064;52.046;4.800;2023-04-01T12:23:09;22.25;;;10.48;;
69789;SDS011;57064;52.046;4.800;2023-04-01T12:36:32;24.25;;;12.57;;
69789;SDS011;57064;52.046;4.800;2023-04-01T12:39:46;30.08;;;13.95;;
69789;SDS011;57064;52.046;4.800;2023-04-01T12:47:27;34.28;;;15.43;;
69789;SDS011;57064;52.046;4.800;2023-04-01T13:01:59;29.75;;;13.50;;
69789;SDS011;57064;52.046;4.800;2023-04-01T13:04:34;31.48;;;12.85;;
69789;SDS011;57064;52.046;4.800;2023-04-01T13:07:23;30.90;;;12.70;;
69789;SDS011;57064;52.046;4.800;2023-04-01T13:18:52;35.22;;;13.40;;
69789;SDS011;57064;52.046;4.800;2023-04-01T13:32:47;25.30;;;12.57;;
69789;SDS011;57064;52.046;4.800;2023-04-01T13:43:50;23.00;;;9.45;;
69789;SDS011;57064;52.046;4.800;2023-04-01T13:54:26;17.33;;;7.85;;
69789;SDS011;57064;52.046;4.800;2023-04-01T14:06:16;16.48;;;7.70;;
69789;SDS011;57064;52.046;4.800;2023-04-01T14:17:06;18.02;;;8.82;;
69789;SDS011;57064;52.046;4.800;2023-04-01T14:19:42;23.38;;;9.55;;
69789;SDS011;57064;52.046;4.800;2023-04-01T14:22:19;14.73;;;7.63;;
69789;SDS011;57064;52.046;4.800;2023-04-01T14:27:45;19.10;;;8.77;;
69789;SDS011;57064;52.046;4.800;2023-04-01T14:30:20;16.20;;;7.55;;
69789;SDS011;57064;52.046;4.800;2023-04-01T14:39:20;13.82;;;6.55;;
69789;SDS011;57064;52.046;4.800;2023-04-01T14:42:11;13.35;;;6.00;;
69789;SDS011;57064;52.046;4.800;2023-04-01T14:48:03;12.02;;;4.78;;
69789;SDS011;57064;52.046;4.800;2023-04-01T14:50:54;10.93;;;5.57;;
69789;SDS011;57064;52.046;4.800;2023-04-01T14:53:31;15.38;;;6.13;;
69789;SDS011;57064;52.046;4.800;2023-04-01T14:56:03;11.43;;;5.60;;
69789;SDS011;57064;52.046;4.800;2023-04-01T14:58:52;14.68;;;6.65;;
69789;SDS011;57064;52.046;4.800;2023-04-01T15:14:45;18.02;;;8.27;;
69789;SDS011;57064;52.046;4.800;2023-04-01T15:17:36;18.25;;;7.93;;
69789;SDS011;57064;52.046;4.800;2023-04-01T15:25:46;16.73;;;8.20;;
69789;SDS011;57064;52.046;4.800;2023-04-01T15:31:21;22.80;;;10.00;;
69789;SDS011;57064;52.046;4.800;2023-04-01T15:55:39;22.90;;;8.05;;
69789;SDS011;57064;52.046;4.800;2023-04-01T16:04:32;20.67;;;7.72;;
69789;SDS011;57064;52.046;4.800;2023-04-01T16:21:21;18.85;;;8.43;;
69789;SDS011;57064;52.046;4.800;2023-04-01T16:26:39;17.17;;;8.15;;
69789;SDS011;57064;52.046;4.800;2023-04-01T16:31:55;21.50;;;7.47;;
69789;SDS011;57064;52.046;4.800;2023-04-01T16:34:56;20.98;;;8.68;;
69789;SDS011;57064;52.046;4.800;2023-04-01T16:43:52;12.40;;;6.25;;
69789;SDS011;57064;52.046;4.800;2023-04-01T16:46:26;12.65;;;6.03;;
69789;SDS011;57064;52.046;4.800;2023-04-01T16:49:01;18.67;;;8.65;;
69789;SDS011;57064;52.046;4.800;2023-04-01T17:00:22;17.95;;;7.38;;
69789;SDS011;57064;52.046;4.800;2023-04-01T17:10:49;15.30;;;6.07;;
69789;SDS011;57064;52.046;4.800;2023-04-01T17:13:40;9.00;;;4.20;;
69789;SDS011;57064;52.046;4.800;2023-04-01T17:25:11;8.88;;;4.13;;
69789;SDS011;57064;52.046;4.800;2023-04-01T17:27:54;5.93;;;3.38;;
69789;SDS011;57064;52.046;4.800;2023-04-01T17:38:34;6.03;;;3.53;;
69789;SDS011;57064;52.046;4.800;2023-04-01T17:42:28;8.80;;;4.13;;
69789;SDS011;57064;52.046;4.800;2023-04-01T17:50:24;6.95;;;3.50;;
69789;SDS011;57064;52.046;4.800;2023-04-01T17:58:55;12.25;;;4.20;;
69789;SDS011;57064;52.046;4.800;2023-04-01T18:01:40;7.63;;;4.47;;
69789;SDS011;57064;52.046;4.800;2023-04-01T18:22:53;6.80;;;4.05;;
69789;SDS011;57064;52.046;4.800;2023-04-01T18:25:41;10.80;;;4.55;;
69789;SDS011;57064;52.046;4.800;2023-04-01T18:30:56;6.05;;;3.85;;
69789;SDS011;57064;52.046;4.800;2023-04-01T18:39:32;7.82;;;4.35;;
69789;SDS011;57064;52.046;4.800;2023-04-01T18:50:59;10.75;;;4.68;;
69789;SDS011;57064;52.046;4.800;2023-04-01T18:56:01;9.13;;;4.65;;
69789;SDS011;57064;52.046;4.800;2023-04-01T18:58:50;11.90;;;6.50;;
69789;SDS011;57064;52.046;4.800;2023-04-01T19:01:47;12.32;;;6.63;;
69789;SDS011;57064;52.046;4.800;2023-04-01T19:04:34;9.35;;;5.10;;
69789;SDS011;57064;52.046;4.800;2023-04-01T19:07:34;10.95;;;6.00;;
69789;SDS011;57064;52.046;4.800;2023-04-01T19:26:37;10.90;;;5.82;;
69789;SDS011;57064;52.046;4.800;2023-04-01T19:37:38;12.30;;;4.97;;
69789;SDS011;57064;52.046;4.800;2023-04-01T19:40:27;7.90;;;4.47;;
69789;SDS011;57064;52.046;4.800;2023-04-01T19:43:20;9.48;;;4.95;;
69789;SDS011;57064;52.046;4.800;2023-04-01T19:48:44;11.90;;;6.00;;
69789;SDS011;57064;52.046;4.800;2023-04-01T19:59:34;10.63;;;5.22;;
69789;SDS011;57064;52.046;4.800;2023-04-01T20:02:44;17.27;;;6.88;;
69789;SDS011;57064;52.046;4.800;2023-04-01T20:08:41;11.75;;;6.65;;
69789;SDS011;57064;52.046;4.800;2023-04-01T20:11:27;11.35;;;6.20;;
69789;SDS011;57064;52.046;4.800;2023-04-01T20:16:59;8.40;;;4.65;;
69789;SDS011;57064;52.046;4.800;2023-04-01T20:19:43;15.00;;;6.32;;
69789;SDS011;57064;52.046;4.800;2023-04-01T20:22:22;9.10;;;4.32;;
69789;SDS011;57064;52.046;4.800;2023-04-01T20:27:57;9.55;;;4.15;;
69789;SDS011;57064;52.046;4.800;2023-04-01T20:53:15;11.10;;;5.60;;
69789;SDS011;57064;52.046;4.800;2023-04-01T21:01:15;13.10;;;5.90;;
69789;SDS011;57064;52.046;4.800;2023-04-01T21:04:12;10.60;;;5.68;;
69789;SDS011;57064;52.046;4.800;2023-04-01T21:17:58;9.70;;;5.47;;
69789;SDS011;57064;52.046;4.800;2023-04-01T21:36:41;7.15;;;5.00;;
69789;SDS011;57064;52.046;4.800;2023-04-01T21:39:19;9.38;;;5.65;;
69789;SDS011;57064;52.046;4.800;2023-04-01T21:42:16;8.48;;;4.25;;
69789;SDS011;57064;52.046;4.800;2023-04-01T21:45:02;11.52;;;5.13;;
69789;SDS011;57064;52.046;4.800;2023-04-01T22:00:48;11.60;;;6.35;;
69789;SDS011;57064;52.046;4.800;2023-04-01T22:03:40;15.27;;;6.50;;
69789;SDS011;57064;52.046;4.800;2023-04-01T22:08:46;9.00;;;5.15;;
69789;SDS011;57064;52.046;4.800;2023-04-01T22:14:48;9.40;;;4.90;;
69789;SDS011;57064;52.046;4.800;2023-04-01T22:17:31;8.30;;;4.80;;
69789;SDS011;57064;52.046;4.800;2023-04-01T22:20:14;10.73;;;5.18;;
69789;SDS011;57064;52.046;4.800;2023-04-01T22:28:09;8.23;;;4.88;;
69789;SDS011;57064;52.046;4.800;2023-04-01T22:31:00;14.82;;;6.88;;
69789;SDS011;57064;52.046;4.800;2023-04-01T22:44:05;15.20;;;8.30;;
69789;SDS011;57064;52.046;4.800;2023-04-01T22:54:58;13.15;;;7.03;;
69789;SDS011;57064;52.046;4.800;2023-04-01T23:00:29;13.90;;;6.70;;
69789;SDS011;57064;52.046;4.800;2023-04-01T23:03:17;11.88;;;5.65;;
69789;SDS011;57064;52.046;4.800;2023-04-01T23:05:51;12.07;;;6.28;;
69789;SDS011;57064;52.046;4.800;2023-04-01T23:10:56;14.55;;;6.68;;
69789;SDS011;57064;52.046;4.800;2023-04-01T23:13:32;18.27;;;8.88;;
69789;SDS011;57064;52.046;4.800;2023-04-01T23:16:05;18.42;;;8.43;;
69789;SDS011;57064;52.046;4.800;2023-04-01T23:27:20;11.02;;;6.57;;
69789;SDS011;57064;52.046;4.800;2023-04-01T23:29:28;11.18;;;6.88;;
69789;SDS011;57064;52.046;4.800;2023-04-01T23:31:58;10.27;;;6.60;;
69789;SDS011;57064;52.046;4.800;2023-04-01T23:34:32;19.98;;;8.20;;
69789;SDS011;57064;52.046;4.800;2023-04-01T23:39:32;19.88;;;8.13;;
69789;SDS011;57064;52.046;4.800;2023-04-01T23:42:04;15.13;;;7.65;;
69789;SDS011;57064;52.046;4.800;2023-04-01T23:44:46;16.55;;;7.90;;
69789;SDS011;57064;52.046;4.800;2023-04-01T23:47:16;16.13;;;7.65;;
69789;SDS011;57064;52.046;4.800;2023-04-01T23:50:05;15.73;;;7.53;;
69789;SDS011;57064;52.046;4.800;2023-04-01T23:52:43;13.18;;;6.28;;
69789;SDS011;57064;52.046;4.800;2023-04-01T23:55:25;16.65;;;8.13;;
69789;SDS011;57064;52.046;4.800;2023-04-01T23:58:39;10.93;;;6.65;;
